Time;durP1;ratioP1;P1;durP2;ratioP2;P2;SDS_P1;SDS_P2;PMS_P1;PMS_P2;Temp;Humidity;BMP_temperature;BMP_pressure;BME280_temperature;BME280_humidity;BME280_pressure;Samples;Min_cycle;Max_cycle;Signal;HPM_P1;HPM_P2
2020/12/27 00:00:39;;;;;;;0.73;0.73;;;5.30;90.00;;;;;;5079676;28;20189;-78
2020/12/27 00:03:04;;;;;;;0.73;0.70;;;5.30;90.20;;;;;;5052935;28;20193;-76
2020/12/27 00:05:30;;;;;;;0.87;0.87;;;5.20;90.40;;;;;;5069163;28;20258;-76
2020/12/27 00:07:56;;;;;;;1.23;0.73;;;5.20;90.50;;;;;;5071036;28;20191;-75
2020/12/27 00:10:21;;;;;;;0.70;0.70;;;5.10;90.60;;;;;;5068194;28;20205;-77
2020/12/27 00:12:47;;;;;;;0.80;0.80;;;5.10;90.60;;;;;;5068275;28;20633;-77
2020/12/27 00:15:13;;;;;;;1.10;1.10;;;5.10;90.80;;;;;;5077668;28;20180;-77
2020/12/27 00:17:38;;;;;;;2.27;1.10;;;5.00;91.30;;;;;;5069466;28;20264;-77
2020/12/27 00:20:05;;;;;;;2.23;1.20;;;5.00;91.40;;;;;;5069675;28;20240;-77
2020/12/27 00:22:31;;;;;;;1.47;1.40;;;4.90;91.40;;;;;;5064235;28;20232;-77
2020/12/27 00:24:57;;;;;;;0.80;0.80;;;4.90;91.70;;;;;;5059969;28;20619;-77
2020/12/27 00:27:23;;;;;;;1.03;0.90;;;4.80;91.90;;;;;;5067801;28;20183;-77
2020/12/27 00:29:48;;;;;;;1.10;1.00;;;4.80;92.10;;;;;;5075141;28;20231;-77
2020/12/27 00:32:14;;;;;;;1.20;1.03;;;4.80;92.30;;;;;;5067393;28;20179;-77
2020/12/27 00:34:40;;;;;;;1.20;1.20;;;4.80;92.30;;;;;;5047453;28;20626;-77
2020/12/27 00:37:05;;;;;;;1.87;0.87;;;4.80;92.30;;;;;;5048573;28;20168;-77
2020/12/27 00:39:31;;;;;;;1.20;1.20;;;4.80;92.40;;;;;;5076176;28;20229;-77
2020/12/27 00:41:59;;;;;;;1.00;1.00;;;4.80;92.40;;;;;;5047205;28;21080;-76
2020/12/27 00:44:25;;;;;;;1.33;1.23;;;4.90;92.30;;;;;;5072248;28;20655;-77
2020/12/27 00:46:50;;;;;;;1.07;1.07;;;4.90;92.40;;;;;;5069653;28;20189;-77
2020/12/27 00:49:17;;;;;;;1.43;1.33;;;4.90;92.30;;;;;;5072694;28;21046;-77
2020/12/27 00:51:43;;;;;;;1.60;1.27;;;5.00;92.30;;;;;;5071585;28;20671;-77
2020/12/27 00:54:09;;;;;;;1.53;1.03;;;5.00;92.30;;;;;;5078479;28;20564;-78
2020/12/27 00:56:35;;;;;;;1.20;1.10;;;5.00;92.30;;;;;;5078869;28;20178;-78
2020/12/27 00:59:00;;;;;;;1.10;1.10;;;5.00;92.30;;;;;;5059908;28;20178;-78
2020/12/27 01:01:26;;;;;;;3.90;1.57;;;5.10;92.40;;;;;;5089081;28;20228;-78
2020/12/27 01:03:52;;;;;;;0.97;0.97;;;5.10;92.20;;;;;;5086782;28;20685;-78
2020/12/27 01:06:28;;;;;;;0.90;0.90;;;5.10;91.90;;;;;;5086970;28;20264;-78
2020/12/27 01:08:55;;;;;;;1.37;1.23;;;5.20;91.80;;;;;;5079547;28;20214;-78
2020/12/27 01:11:21;;;;;;;1.60;0.90;;;5.20;91.90;;;;;;5079261;28;20655;-78
2020/12/27 01:13:47;;;;;;;2.53;1.30;;;5.20;91.90;;;;;;5076619;28;20228;-76
2020/12/27 01:16:14;;;;;;;1.13;1.10;;;5.20;91.90;;;;;;5074422;28;20199;-77
2020/12/27 01:18:42;;;;;;;2.27;1.17;;;5.20;92.00;;;;;;5068333;28;20175;-77
2020/12/27 01:21:08;;;;;;;0.97;0.97;;;5.20;92.10;;;;;;5048582;28;20176;-77
2020/12/27 01:23:34;;;;;;;1.40;1.30;;;5.30;92.50;;;;;;5074754;28;20260;-77
2020/12/27 01:26:00;;;;;;;0.77;0.77;;;5.30;92.40;;;;;;5073797;28;20198;-77
2020/12/27 01:28:25;;;;;;;1.13;1.10;;;5.30;92.40;;;;;;5089331;28;20227;-77
2020/12/27 01:30:51;;;;;;;1.20;1.20;;;5.40;92.30;;;;;;5065706;28;20194;-77
2020/12/27 01:33:17;;;;;;;0.87;0.87;;;5.40;92.30;;;;;;5073912;28;20166;-77
2020/12/27 01:35:46;;;;;;;0.80;0.80;;;5.40;92.50;;;;;;5056171;28;20651;-77
2020/12/27 01:38:13;;;;;;;1.13;1.13;;;5.40;92.50;;;;;;5069906;28;20206;-77
2020/12/27 01:40:39;;;;;;;1.10;1.10;;;5.40;92.50;;;;;;5069891;28;20183;-77
2020/12/27 01:43:05;;;;;;;1.17;1.07;;;5.40;92.80;;;;;;5071266;28;20178;-77
2020/12/27 01:45:31;;;;;;;0.87;0.87;;;5.40;92.90;;;;;;5082381;28;20206;-77
2020/12/27 01:47:57;;;;;;;0.93;0.93;;;5.40;93.00;;;;;;5071836;28;20253;-76
2020/12/27 01:50:23;;;;;;;3.53;1.40;;;5.40;93.20;;;;;;5062038;28;20274;-77
2020/12/27 01:52:49;;;;;;;1.30;1.30;;;5.40;93.20;;;;;;5060231;28;20183;-77
2020/12/27 01:55:16;;;;;;;0.83;0.83;;;5.50;93.20;;;;;;5080178;28;20224;-76
2020/12/27 01:58:13;;;;;;;1.10;1.00;;;5.50;93.20;;;;;;5087456;28;20172;-77
2020/12/27 02:00:39;;;;;;;1.07;1.07;;;5.50;93.00;;;;;;4969087;28;20281;-77
2020/12/27 02:03:05;;;;;;;1.10;1.10;;;5.50;93.20;;;;;;4944703;28;21242;-76
2020/12/27 02:05:31;;;;;;;1.53;1.03;;;5.50;93.20;;;;;;4940628;28;20281;-76
2020/12/27 02:07:57;;;;;;;0.90;0.90;;;5.50;93.40;;;;;;4933739;28;20277;-77
2020/12/27 02:10:24;;;;;;;1.03;0.90;;;5.60;93.60;;;;;;4967531;28;20880;-76
2020/12/27 02:12:50;;;;;;;1.97;1.50;;;5.60;93.60;;;;;;4968304;28;20279;-77
2020/12/27 02:15:16;;;;;;;1.07;1.07;;;5.60;93.70;;;;;;4947188;28;20917;-76
2020/12/27 02:17:41;;;;;;;1.00;1.00;;;5.60;93.60;;;;;;4960425;28;20195;-78
2020/12/27 02:20:07;;;;;;;1.10;1.10;;;5.60;93.60;;;;;;4949319;28;20191;-77
2020/12/27 02:22:33;;;;;;;1.27;1.27;;;5.60;93.70;;;;;;4952578;28;20193;-77
2020/12/27 02:24:58;;;;;;;0.70;0.70;;;5.60;93.80;;;;;;4966585;28;20672;-77
2020/12/27 02:27:24;;;;;;;1.53;0.73;;;5.60;93.70;;;;;;4936263;29;20191;-77
2020/12/27 02:29:50;;;;;;;1.30;1.30;;;5.60;93.80;;;;;;4939111;29;20207;-77
2020/12/27 02:32:15;;;;;;;1.07;1.07;;;5.60;93.80;;;;;;4949294;29;20776;-77
2020/12/27 02:34:41;;;;;;;1.00;0.97;;;5.60;93.90;;;;;;4949582;28;20250;-77
2020/12/27 02:37:07;;;;;;;1.13;1.13;;;5.60;93.90;;;;;;4987303;28;20715;-77
2020/12/27 02:39:34;;;;;;;1.00;1.00;;;5.60;94.00;;;;;;5085822;28;20178;-77
2020/12/27 02:42:00;;;;;;;1.47;1.47;;;5.60;94.00;;;;;;5093787;28;20265;-77
2020/12/27 02:44:26;;;;;;;1.40;1.40;;;5.60;94.00;;;;;;5085605;28;20903;-77
2020/12/27 02:46:51;;;;;;;1.97;1.43;;;5.60;94.10;;;;;;5063197;28;20176;-77
2020/12/27 02:49:17;;;;;;;1.40;1.40;;;5.60;94.10;;;;;;5084535;28;20175;-77
2020/12/27 02:51:43;;;;;;;1.40;1.30;;;5.60;94.00;;;;;;5088642;28;20327;-77
2020/12/27 02:54:08;;;;;;;3.50;1.90;;;5.60;94.10;;;;;;5093038;28;20279;-77
2020/12/27 02:56:34;;;;;;;2.57;2.10;;;5.60;94.20;;;;;;5065119;28;20179;-77
2020/12/27 02:59:02;;;;;;;2.60;2.50;;;5.60;94.30;;;;;;5057897;28;20178;-77
2020/12/27 03:01:28;;;;;;;4.80;2.27;;;5.60;94.50;;;;;;5075262;28;20190;-77
2020/12/27 03:03:53;;;;;;;2.43;2.23;;;5.60;94.50;;;;;;5070428;28;20182;-77
2020/12/27 03:06:19;;;;;;;2.33;2.23;;;5.60;94.50;;;;;;5054125;28;20200;-78
2020/12/27 03:08:46;;;;;;;2.33;2.23;;;5.60;94.50;;;;;;5064626;28;20222;-77
2020/12/27 03:11:11;;;;;;;2.70;2.50;;;5.60;94.50;;;;;;5071729;28;20206;-77
2020/12/27 03:13:37;;;;;;;4.43;2.50;;;5.60;94.50;;;;;;5072339;28;20175;-77
2020/12/27 03:16:05;;;;;;;3.10;2.63;;;5.60;94.60;;;;;;5071093;28;20175;-77
2020/12/27 03:18:31;;;;;;;3.03;2.73;;;5.60;94.60;;;;;;5077350;28;20186;-77
2020/12/27 03:20:57;;;;;;;2.43;2.33;;;5.60;94.70;;;;;;5076859;28;20175;-77
2020/12/27 03:23:23;;;;;;;2.53;2.43;;;5.60;94.60;;;;;;5064577;28;20927;-77
2020/12/27 03:25:49;;;;;;;4.37;2.17;;;5.60;94.60;;;;;;5062862;28;20183;-77
2020/12/27 03:28:15;;;;;;;2.60;2.43;;;5.60;94.70;;;;;;5071052;28;20211;-77
2020/12/27 03:30:42;;;;;;;3.33;3.03;;;5.60;94.60;;;;;;5087704;28;20217;-77
2020/12/27 03:33:09;;;;;;;5.27;2.90;;;5.60;94.70;;;;;;5084352;28;20183;-77
2020/12/27 03:35:35;;;;;;;3.80;3.17;;;5.60;94.90;;;;;;5081077;28;20174;-77
2020/12/27 03:38:01;;;;;;;3.33;2.83;;;5.60;95.00;;;;;;5070921;28;20180;-77
2020/12/27 03:40:26;;;;;;;3.33;3.03;;;5.60;95.00;;;;;;5062520;28;20186;-76
2020/12/27 03:42:52;;;;;;;3.83;3.57;;;5.60;95.00;;;;;;5073776;28;20179;-76
2020/12/27 03:45:18;;;;;;;3.70;3.33;;;5.60;95.00;;;;;;5071542;28;20183;-78
2020/12/27 03:47:44;;;;;;;4.43;4.10;;;5.60;95.00;;;;;;5064420;28;20207;-78
2020/12/27 03:50:09;;;;;;;3.30;3.10;;;5.60;95.10;;;;;;5053456;28;20199;-77
2020/12/27 03:52:35;;;;;;;4.00;3.50;;;5.60;95.10;;;;;;5065162;28;20233;-77
2020/12/27 03:55:01;;;;;;;5.10;4.07;;;5.60;95.10;;;;;;5054055;28;20271;-77
2020/12/27 03:57:26;;;;;;;4.47;4.10;;;5.60;95.10;;;;;;5079489;28;20220;-77
2020/12/27 03:59:52;;;;;;;3.90;3.47;;;5.60;95.10;;;;;;5076724;28;20193;-77
2020/12/27 04:02:18;;;;;;;3.37;3.07;;;5.60;95.10;;;;;;5061971;28;20244;-76
2020/12/27 04:04:44;;;;;;;3.77;3.47;;;5.60;95.20;;;;;;5037270;28;20248;-76
2020/12/27 04:07:09;;;;;;;4.07;3.70;;;5.70;95.20;;;;;;5070868;28;20186;-76
2020/12/27 04:09:35;;;;;;;4.17;3.77;;;5.60;95.20;;;;;;5069943;28;20219;-77
2020/12/27 04:12:01;;;;;;;8.53;3.90;;;5.60;95.30;;;;;;5062149;28;20764;-77
2020/12/27 04:14:27;;;;;;;4.57;4.17;;;5.60;95.30;;;;;;5066355;28;20181;-77
2020/12/27 04:16:53;;;;;;;4.53;3.97;;;5.60;95.40;;;;;;5066249;28;20167;-76
2020/12/27 04:19:19;;;;;;;4.30;3.90;;;5.60;95.40;;;;;;5060159;28;20179;-76
2020/12/27 04:21:45;;;;;;;4.60;4.20;;;5.60;95.40;;;;;;5065078;28;20191;-77
2020/12/27 04:24:11;;;;;;;5.10;4.37;;;5.60;95.50;;;;;;5062832;28;20717;-78
2020/12/27 04:26:37;;;;;;;4.03;3.63;;;5.50;95.50;;;;;;5076657;28;20190;-78
2020/12/27 04:29:04;;;;;;;5.40;4.40;;;5.50;95.60;;;;;;5067263;28;20639;-76
2020/12/27 04:31:29;;;;;;;5.03;4.57;;;5.60;95.50;;;;;;5052152;28;20214;-77
2020/12/27 04:33:56;;;;;;;5.00;4.23;;;5.60;95.60;;;;;;5069552;28;20872;-77
2020/12/27 04:36:23;;;;;;;6.03;4.27;;;5.60;95.50;;;;;;5070580;28;20224;-77
2020/12/27 04:38:48;;;;;;;4.07;3.80;;;5.60;95.60;;;;;;5070848;28;20181;-77
2020/12/27 04:41:16;;;;;;;4.33;3.90;;;5.60;95.50;;;;;;5058091;28;20884;-77
2020/12/27 04:43:43;;;;;;;5.47;4.37;;;5.60;95.50;;;;;;5070121;28;20186;-77
2020/12/27 04:46:13;;;;;;;4.83;4.37;;;5.60;95.60;;;;;;5069233;28;20182;-76
2020/12/27 04:48:40;;;;;;;5.63;4.10;;;5.60;95.50;;;;;;5065035;28;20190;-76
2020/12/27 04:51:09;;;;;;;6.40;3.97;;;5.60;95.50;;;;;;5073501;28;20205;-77
2020/12/27 04:53:35;;;;;;;5.70;4.10;;;5.60;95.60;;;;;;5068033;28;20189;-76
2020/12/27 04:56:03;;;;;;;4.07;3.73;;;5.60;95.60;;;;;;5069070;28;20175;-77
2020/12/27 04:58:28;;;;;;;4.27;3.87;;;5.60;95.70;;;;;;5072884;28;20179;-76
2020/12/27 05:00:56;;;;;;;4.30;3.90;;;5.70;95.80;;;;;;5088884;28;20239;-76
2020/12/27 05:03:21;;;;;;;5.00;4.10;;;5.70;95.80;;;;;;5066178;28;20214;-76
2020/12/27 05:05:51;;;;;;;5.07;3.93;;;5.70;95.80;;;;;;5069670;28;20210;-76
2020/12/27 05:08:18;;;;;;;6.53;4.60;;;5.70;95.80;;;;;;5067969;28;20203;-76
2020/12/27 05:10:44;;;;;;;4.30;4.00;;;5.60;95.90;;;;;;5050807;28;20369;-77
2020/12/27 05:13:11;;;;;;;4.73;4.30;;;5.70;96.00;;;;;;5073500;28;20186;-77
2020/12/27 05:15:38;;;;;;;3.93;3.73;;;5.70;96.00;;;;;;5049135;28;20682;-77
2020/12/27 05:18:05;;;;;;;4.07;3.77;;;5.70;96.00;;;;;;5063743;28;20226;-77
2020/12/27 05:20:35;;;;;;;5.03;3.90;;;5.70;96.00;;;;;;5081324;28;20933;-77
2020/12/27 05:23:03;;;;;;;4.50;4.10;;;5.70;96.00;;;;;;5070426;28;20830;-77
2020/12/27 05:25:30;;;;;;;7.23;4.50;;;5.70;96.30;;;;;;5070930;28;20189;-77
2020/12/27 05:28:10;;;;;;;4.83;4.43;;;5.70;96.20;;;;;;5069647;28;20201;-77
2020/12/27 05:30:46;;;;;;;4.07;3.67;;;5.70;96.30;;;;;;5033163;28;20714;-77
2020/12/27 05:33:13;;;;;;;5.70;4.10;;;5.70;96.40;;;;;;5052686;28;20159;-77
2020/12/27 05:35:39;;;;;;;5.47;4.50;;;5.60;96.40;;;;;;5068784;28;20171;-77
2020/12/27 05:38:06;;;;;;;6.40;4.20;;;5.60;96.60;;;;;;5075889;28;20182;-77
2020/12/27 05:40:38;;;;;;;6.47;4.17;;;5.70;96.50;;;;;;5049408;28;20182;-77
2020/12/27 05:43:15;;;;;;;4.43;3.77;;;5.70;96.50;;;;;;5068157;28;20189;-78
2020/12/27 05:45:41;;;;;;;3.07;2.80;;;5.70;96.50;;;;;;5088609;28;20235;-78
2020/12/27 05:48:08;;;;;;;3.70;3.00;;;5.70;96.80;;;;;;5076423;28;20198;-77
2020/12/27 05:50:38;;;;;;;4.37;3.73;;;5.70;96.80;;;;;;5071761;28;20884;-77
2020/12/27 05:53:16;;;;;;;3.30;3.00;;;5.70;96.80;;;;;;5080834;28;20175;-77
2020/12/27 05:55:47;;;;;;;2.67;2.40;;;5.70;97.00;;;;;;5071025;28;20166;-77
2020/12/27 05:58:34;;;;;;;1.93;1.83;;;5.70;97.20;;;;;;5090998;28;20178;-76
2020/12/27 06:00:59;;;;;;;1.97;1.87;;;5.70;97.20;;;;;;5089654;28;20245;-77
2020/12/27 06:03:29;;;;;;;2.00;1.90;;;5.70;97.50;;;;;;5058166;28;20192;-77
2020/12/27 06:05:57;;;;;;;2.90;2.40;;;5.70;97.50;;;;;;5043135;28;20190;-77
2020/12/27 06:08:29;;;;;;;3.80;2.27;;;5.60;97.80;;;;;;5055267;28;20657;-77
2020/12/27 06:11:05;;;;;;;5.07;1.90;;;5.50;98.30;;;;;;5091318;28;20202;-77
2020/12/27 06:14:08;;;;;;;2.50;2.07;;;5.50;98.40;;;;;;5074660;28;20551;-77
2020/12/27 06:16:45;;;;;;;1.63;1.47;;;5.40;98.50;;;;;;5076752;28;20239;-79
2020/12/27 06:19:23;;;;;;;1.50;1.40;;;5.40;98.50;;;;;;5071117;28;20175;-76
2020/12/27 06:22:04;;;;;;;2.03;1.93;;;5.30;98.50;;;;;;5057970;28;20315;-76
2020/12/27 06:24:30;;;;;;;1.67;1.57;;;5.30;98.50;;;;;;5093689;28;20163;-78
2020/12/27 06:26:59;;;;;;;3.13;1.93;;;5.40;98.50;;;;;;5094410;28;20307;-76
2020/12/27 06:29:34;;;;;;;4.10;2.20;;;5.40;98.50;;;;;;5093468;28;20261;-76
2020/12/27 06:32:05;;;;;;;1.83;1.70;;;5.40;98.50;;;;;;5093046;28;20174;-77
2020/12/27 06:34:31;;;;;;;2.40;1.60;;;5.40;98.50;;;;;;5082106;28;20533;-77
2020/12/27 06:37:01;;;;;;;2.13;1.50;;;5.40;98.50;;;;;;5072461;28;20186;-77
2020/12/27 06:39:28;;;;;;;1.43;1.37;;;5.40;98.50;;;;;;5069618;28;20182;-77
2020/12/27 06:42:14;;;;;;;1.20;1.20;;;5.40;98.50;;;;;;5079246;28;20188;-78
2020/12/27 06:44:48;;;;;;;1.30;1.27;;;5.30;98.50;;;;;;5091801;28;20231;-77
2020/12/27 06:47:16;;;;;;;1.20;1.20;;;5.30;98.50;;;;;;5074385;28;20888;-78
2020/12/27 06:49:42;;;;;;;2.30;1.57;;;5.40;98.50;;;;;;5088724;28;20202;-78
2020/12/27 06:52:20;;;;;;;1.73;1.63;;;5.40;98.50;;;;;;5093259;28;20201;-78
2020/12/27 06:54:50;;;;;;;1.80;1.70;;;5.40;98.50;;;;;;5078264;28;20316;-77
2020/12/27 06:57:44;;;;;;;3.13;1.07;;;5.40;98.50;;;;;;5088875;28;20228;-78
2020/12/27 07:00:27;;;;;;;2.40;1.63;;;5.50;98.50;;;;;;5091424;28;20574;-78
2020/12/27 07:03:06;;;;;;;2.37;1.90;;;5.50;98.50;;;;;;5091545;28;20696;-78
2020/12/27 07:05:34;;;;;;;1.70;1.70;;;5.50;98.50;;;;;;5073484;28;20190;-78
2020/12/27 07:08:02;;;;;;;1.33;1.23;;;5.50;98.50;;;;;;5066297;28;20205;-78
2020/12/27 07:10:30;;;;;;;3.10;1.93;;;5.50;98.50;;;;;;5052107;28;20231;-78
2020/12/27 07:13:04;;;;;;;1.03;1.03;;;5.60;98.50;;;;;;5044147;28;20561;-78
2020/12/27 07:15:31;;;;;;;2.17;1.97;;;5.60;98.50;;;;;;5090536;28;20665;-78
2020/12/27 07:18:05;;;;;;;3.37;1.60;;;5.60;98.50;;;;;;5091299;28;20253;-78
2020/12/27 07:20:31;;;;;;;1.57;1.47;;;5.60;98.50;;;;;;5068371;28;20255;-78
2020/12/27 07:22:57;;;;;;;1.57;1.23;;;5.70;98.50;;;;;;5052028;28;20183;-78
2020/12/27 07:25:23;;;;;;;1.83;1.70;;;5.60;98.50;;;;;;5074265;28;20240;-78
2020/12/27 07:27:50;;;;;;;2.13;2.03;;;5.70;98.50;;;;;;5068155;28;20288;-73
2020/12/27 07:30:18;;;;;;;2.40;2.27;;;5.70;98.50;;;;;;5070132;28;20260;-72
2020/12/27 07:32:44;;;;;;;1.90;1.80;;;5.70;98.50;;;;;;5070516;28;20179;-73
2020/12/27 07:35:10;;;;;;;2.20;2.10;;;5.70;98.50;;;;;;5070161;28;20185;-78
2020/12/27 07:37:37;;;;;;;2.20;2.10;;;5.70;98.50;;;;;;5073453;28;20182;-77
2020/12/27 07:40:05;;;;;;;1.70;1.60;;;5.70;98.50;;;;;;5061892;28;20187;-75
2020/12/27 07:42:32;;;;;;;2.43;2.33;;;5.70;98.50;;;;;;5051796;28;20988;-78
2020/12/27 07:45:00;;;;;;;3.07;2.30;;;5.70;98.50;;;;;;5070678;28;20663;-78
2020/12/27 07:47:27;;;;;;;2.50;2.30;;;5.70;98.50;;;;;;5064015;28;20809;-84
2020/12/27 07:50:10;;;;;;;2.07;2.03;;;5.70;98.50;;;;;;5062835;28;20824;-77
2020/12/27 07:52:45;;;;;;;1.93;1.83;;;5.80;98.50;;;;;;5077421;28;20167;-77
2020/12/27 07:55:22;;;;;;;1.80;1.70;;;5.80;98.50;;;;;;5060781;28;20186;-77
2020/12/27 07:57:48;;;;;;;2.10;2.00;;;5.90;98.50;;;;;;5069726;28;20174;-76
2020/12/27 08:00:14;;;;;;;2.60;2.40;;;5.90;98.50;;;;;;5045222;28;20582;-75
2020/12/27 08:02:44;;;;;;;4.40;2.67;;;5.90;98.50;;;;;;5041276;28;20187;-77
2020/12/27 08:05:11;;;;;;;2.43;2.33;;;5.90;98.50;;;;;;5058384;28;20203;-78
2020/12/27 08:07:38;;;;;;;3.67;2.00;;;6.00;98.50;;;;;;5050667;28;20201;-76
2020/12/27 08:10:19;;;;;;;2.10;2.00;;;6.00;98.50;;;;;;5071144;28;20230;-77
2020/12/27 08:13:00;;;;;;;2.50;2.40;;;6.10;98.50;;;;;;5048279;28;20198;-77
2020/12/27 08:15:27;;;;;;;2.67;2.33;;;6.00;98.50;;;;;;5050562;28;20177;-76
2020/12/27 08:17:59;;;;;;;2.10;1.97;;;6.10;98.50;;;;;;5066960;28;20305;-77
2020/12/27 08:20:26;;;;;;;2.10;1.90;;;6.10;98.50;;;;;;5059238;28;20626;-76
2020/12/27 08:22:58;;;;;;;3.60;2.33;;;6.10;98.50;;;;;;5046883;28;20212;-76
2020/12/27 08:25:25;;;;;;;2.47;2.37;;;6.20;98.50;;;;;;5045597;28;20806;-76
2020/12/27 08:27:58;;;;;;;1.97;1.87;;;6.30;98.40;;;;;;5054512;28;20270;-76
2020/12/27 08:30:25;;;;;;;2.20;2.10;;;6.30;98.20;;;;;;5065160;28;20295;-77
2020/12/27 08:33:05;;;;;;;2.57;2.37;;;6.40;98.20;;;;;;5062642;28;20240;-75
2020/12/27 08:35:31;;;;;;;3.27;2.47;;;6.50;97.90;;;;;;5061624;28;20206;-79
2020/12/27 08:38:19;;;;;;;4.27;3.70;;;6.50;97.90;;;;;;5073723;28;20615;-76
2020/12/27 08:40:52;;;;;;;3.93;2.87;;;6.50;97.80;;;;;;5055324;28;20215;-76
2020/12/27 08:43:34;;;;;;;3.10;2.90;;;6.60;97.80;;;;;;5045954;28;20581;-77
2020/12/27 08:46:05;;;;;;;2.93;2.83;;;6.60;97.60;;;;;;5045528;28;20191;-76
2020/12/27 08:48:35;;;;;;;3.30;3.00;;;6.60;97.60;;;;;;5046939;28;20247;-77
2020/12/27 08:51:03;;;;;;;3.70;3.40;;;6.70;97.60;;;;;;5063851;28;20285;-77
2020/12/27 08:53:33;;;;;;;3.73;3.00;;;6.70;97.50;;;;;;5046519;28;20179;-76
2020/12/27 08:56:01;;;;;;;3.13;2.93;;;6.80;97.40;;;;;;5053726;28;20179;-76
2020/12/27 08:58:27;;;;;;;3.37;3.07;;;6.80;97.50;;;;;;5050162;28;20168;-80
2020/12/27 09:00:53;;;;;;;3.17;2.97;;;6.80;97.60;;;;;;5048921;28;20197;-75
2020/12/27 09:03:19;;;;;;;3.73;3.13;;;6.80;97.80;;;;;;5049627;28;20182;-81
2020/12/27 09:05:45;;;;;;;3.20;2.57;;;6.80;97.90;;;;;;5049055;28;20301;-76
2020/12/27 09:08:18;;;;;;;3.60;2.80;;;6.90;98.10;;;;;;5048592;28;20202;-76
2020/12/27 09:10:45;;;;;;;2.60;2.40;;;7.00;98.10;;;;;;5047886;28;20203;-76
2020/12/27 09:13:12;;;;;;;3.13;2.60;;;7.10;98.10;;;;;;5049849;28;20189;-76
2020/12/27 09:15:49;;;;;;;2.13;1.97;;;7.10;97.80;;;;;;5032280;28;21081;-77
2020/12/27 09:18:17;;;;;;;1.80;1.70;;;7.20;97.70;;;;;;5049504;28;20202;-78
2020/12/27 09:20:45;;;;;;;1.90;1.83;;;7.20;97.90;;;;;;5051791;28;20252;-77
2020/12/27 09:23:19;;;;;;;1.30;1.30;;;7.20;97.80;;;;;;5052667;28;20617;-79
2020/12/27 09:26:02;;;;;;;0.83;0.83;;;7.20;97.80;;;;;;5054181;28;20183;-78
2020/12/27 09:28:30;;;;;;;1.40;1.30;;;7.20;97.80;;;;;;5053660;28;20179;-79
2020/12/27 09:31:01;;;;;;;0.77;0.77;;;7.20;97.90;;;;;;5055601;28;20206;-77
2020/12/27 09:33:31;;;;;;;0.90;0.90;;;7.20;97.90;;;;;;5055025;28;20191;-82
2020/12/27 09:35:57;;;;;;;0.97;0.90;;;7.20;97.80;;;;;;5063917;28;20532;-87
2020/12/27 09:38:25;;;;;;;0.73;0.73;;;7.20;97.80;;;;;;5044437;28;20787;-83
2020/12/27 09:41:13;;;;;;;0.83;0.70;;;7.20;97.90;;;;;;5041015;28;20193;-89
2020/12/27 09:43:58;;;;;;;0.63;0.63;;;7.30;97.60;;;;;;5061449;28;20212;-77
2020/12/27 09:46:44;;;;;;;0.70;0.67;;;7.40;97.60;;;;;;5074167;28;20208;-76
2020/12/27 09:49:34;;;;;;;0.70;0.70;;;7.50;97.30;;;;;;5047828;28;20622;-79
2020/12/27 09:52:13;;;;;;;0.57;0.57;;;7.40;96.80;;;;;;5066573;28;20171;-81
2020/12/27 09:54:40;;;;;;;0.50;0.50;;;7.40;96.90;;;;;;5044372;28;20728;-80
2020/12/27 09:57:35;;;;;;;0.70;0.70;;;7.40;97.00;;;;;;5063042;28;20175;-80
2020/12/27 10:00:03;;;;;;;0.63;0.63;;;7.40;96.80;;;;;;4971953;28;20273;-80
2020/12/27 10:02:28;;;;;;;1.00;0.90;;;7.30;96.60;;;;;;4968530;28;20676;-75
2020/12/27 10:04:54;;;;;;;0.50;0.50;;;7.40;96.90;;;;;;4964603;28;20194;-77
2020/12/27 10:07:20;;;;;;;0.67;0.60;;;7.40;96.80;;;;;;4958643;28;20190;-76
2020/12/27 10:09:46;;;;;;;0.43;0.43;;;7.40;96.90;;;;;;4975535;28;20221;-79
2020/12/27 10:12:12;;;;;;;0.53;0.53;;;7.40;96.90;;;;;;4976882;28;20185;-76
2020/12/27 10:14:37;;;;;;;0.57;0.50;;;7.40;96.70;;;;;;4969968;28;21270;-77
2020/12/27 10:17:03;;;;;;;1.27;0.57;;;7.40;96.90;;;;;;4976174;28;20308;-75
2020/12/27 10:19:30;;;;;;;0.60;0.60;;;7.50;97.00;;;;;;4969452;28;20332;-75
2020/12/27 10:21:56;;;;;;;1.20;0.90;;;7.60;97.00;;;;;;4961058;28;20233;-74
2020/12/27 10:24:24;;;;;;;0.70;0.70;;;7.60;96.90;;;;;;4960776;28;20665;-75
2020/12/27 10:26:50;;;;;;;1.07;1.07;;;7.70;96.70;;;;;;4962669;28;20190;-73
2020/12/27 10:29:16;;;;;;;2.03;1.93;;;7.80;96.70;;;;;;4963274;28;21007;-75
2020/12/27 10:31:42;;;;;;;1.83;1.83;;;7.80;96.40;;;;;;4963576;28;20281;-74
2020/12/27 10:34:08;;;;;;;2.37;1.67;;;7.90;96.10;;;;;;4980777;28;20184;-73
2020/12/27 10:36:34;;;;;;;1.37;1.37;;;7.90;95.90;;;;;;5022191;28;20255;-73
2020/12/27 10:38:59;;;;;;;1.20;1.20;;;7.90;95.50;;;;;;5063579;28;20175;-74
2020/12/27 10:41:26;;;;;;;1.30;1.30;;;7.90;95.50;;;;;;5063548;28;20186;-73
2020/12/27 10:43:51;;;;;;;1.03;1.03;;;7.90;95.40;;;;;;5051900;28;20266;-73
2020/12/27 10:46:18;;;;;;;1.47;1.30;;;7.90;95.30;;;;;;5062762;28;20179;-74
2020/12/27 10:48:44;;;;;;;1.23;0.93;;;7.70;95.30;;;;;;5064023;28;20759;-74
2020/12/27 10:51:10;;;;;;;1.63;1.40;;;7.70;95.80;;;;;;5062825;28;20203;-74
2020/12/27 10:53:36;;;;;;;1.67;1.53;;;7.60;96.00;;;;;;5061282;28;20607;-75
2020/12/27 10:56:02;;;;;;;1.00;1.00;;;7.70;96.10;;;;;;5063735;28;20609;-75
2020/12/27 10:58:28;;;;;;;1.20;1.20;;;7.70;96.20;;;;;;5046307;28;20179;-74
2020/12/27 11:00:54;;;;;;;2.10;0.90;;;7.70;96.20;;;;;;5067929;28;20224;-75
2020/12/27 11:03:20;;;;;;;0.70;0.70;;;7.80;96.40;;;;;;5067784;28;20175;-75
2020/12/27 11:05:47;;;;;;;0.80;0.80;;;7.80;95.20;;;;;;5067649;28;20210;-74
2020/12/27 11:08:13;;;;;;;1.60;0.73;;;7.70;95.30;;;;;;5067259;28;20274;-75
2020/12/27 11:10:45;;;;;;;1.10;0.83;;;7.70;95.30;;;;;;5067324;28;20199;-75
2020/12/27 11:13:11;;;;;;;1.07;0.60;;;7.80;94.80;;;;;;5061720;28;20170;-74
2020/12/27 11:15:37;;;;;;;2.53;0.80;;;7.80;94.60;;;;;;5050279;28;20183;-73
2020/12/27 11:18:03;;;;;;;1.07;0.40;;;7.80;95.10;;;;;;5031826;28;20282;-73
2020/12/27 11:20:29;;;;;;;0.70;0.60;;;7.70;94.40;;;;;;5063220;28;20261;-73
2020/12/27 11:22:58;;;;;;;0.50;0.50;;;7.70;94.90;;;;;;5064701;28;20205;-73
2020/12/27 11:25:24;;;;;;;0.37;0.30;;;7.70;94.90;;;;;;5066963;28;20171;-73
2020/12/27 11:27:50;;;;;;;0.67;0.67;;;7.70;94.40;;;;;;5063815;28;20178;-74
2020/12/27 11:30:16;;;;;;;0.47;0.47;;;7.70;94.60;;;;;;5065593;28;20202;-73
2020/12/27 11:32:42;;;;;;;0.63;0.63;;;7.70;94.80;;;;;;5065299;28;20260;-73
2020/12/27 11:35:08;;;;;;;0.93;0.60;;;7.70;95.20;;;;;;5062357;28;20178;-73
2020/12/27 11:37:34;;;;;;;0.70;0.43;;;7.70;95.20;;;;;;5065613;28;20182;-73
2020/12/27 11:39:59;;;;;;;0.60;0.50;;;7.70;95.30;;;;;;5066501;28;20687;-74
2020/12/27 11:42:26;;;;;;;0.60;0.40;;;7.80;94.90;;;;;;5065122;28;20194;-75
2020/12/27 11:44:52;;;;;;;0.30;0.30;;;7.80;94.90;;;;;;5062851;28;20252;-74
2020/12/27 11:47:18;;;;;;;0.27;0.27;;;7.80;94.80;;;;;;5065967;28;20171;-74
2020/12/27 11:49:44;;;;;;;0.30;0.30;;;7.80;93.80;;;;;;5049565;28;20183;-74
2020/12/27 11:52:09;;;;;;;0.50;0.50;;;7.70;94.10;;;;;;5046846;28;20178;-74
2020/12/27 11:54:35;;;;;;;0.20;0.20;;;7.80;94.30;;;;;;5065789;28;20666;-74
2020/12/27 11:57:01;;;;;;;0.67;0.30;;;7.80;93.70;;;;;;5047407;28;20240;-74
2020/12/27 11:59:27;;;;;;;0.20;0.20;;;7.80;93.90;;;;;;5062183;28;20638;-75
2020/12/27 12:01:53;;;;;;;0.30;0.30;;;7.80;93.50;;;;;;5065632;28;20185;-74
2020/12/27 12:04:18;;;;;;;0.30;0.30;;;7.80;93.40;;;;;;5064839;28;20179;-74
2020/12/27 12:06:45;;;;;;;0.30;0.30;;;7.80;93.50;;;;;;5065744;28;20185;-75
2020/12/27 12:09:11;;;;;;;0.30;0.30;;;7.80;93.60;;;;;;5072124;28;20597;-74
2020/12/27 12:11:38;;;;;;;0.40;0.40;;;7.70;93.90;;;;;;5065957;28;20742;-74
2020/12/27 12:14:05;;;;;;;0.30;0.30;;;7.70;94.10;;;;;;5066362;28;20167;-74
2020/12/27 12:16:31;;;;;;;0.30;0.30;;;7.80;93.90;;;;;;5062893;28;20171;-74
2020/12/27 12:18:57;;;;;;;0.50;0.50;;;7.80;93.90;;;;;;5047971;28;20811;-74
2020/12/27 12:21:24;;;;;;;0.87;0.40;;;7.80;93.90;;;;;;5066513;28;20226;-74
2020/12/27 12:23:50;;;;;;;0.40;0.40;;;7.90;93.80;;;;;;5063101;28;20205;-75
2020/12/27 12:26:20;;;;;;;0.47;0.47;;;7.90;93.50;;;;;;5048069;28;20175;-75
2020/12/27 12:28:46;;;;;;;0.70;0.70;;;8.00;93.50;;;;;;5065613;28;20214;-75
2020/12/27 12:31:13;;;;;;;1.43;0.93;;;8.00;93.40;;;;;;5053034;28;20194;-75
2020/12/27 12:33:39;;;;;;;0.77;0.77;;;8.10;93.20;;;;;;5047834;28;20171;-74
2020/12/27 12:36:05;;;;;;;0.60;0.60;;;8.10;93.10;;;;;;5062584;28;20282;-74
2020/12/27 12:38:32;;;;;;;0.70;0.70;;;8.00;92.90;;;;;;5065577;28;20246;-75
2020/12/27 12:40:58;;;;;;;0.80;0.80;;;8.00;93.10;;;;;;5065605;28;20896;-73
2020/12/27 12:43:23;;;;;;;1.00;1.00;;;8.10;93.30;;;;;;5065654;28;20182;-74
2020/12/27 12:45:49;;;;;;;1.00;0.80;;;8.10;93.00;;;;;;5064160;28;20205;-74
2020/12/27 12:48:15;;;;;;;2.57;1.50;;;8.10;92.70;;;;;;5065755;28;20177;-75
2020/12/27 12:50:40;;;;;;;0.87;0.87;;;8.20;93.00;;;;;;5067758;28;20715;-75
2020/12/27 12:53:06;;;;;;;0.97;0.97;;;8.20;92.70;;;;;;5047767;28;20249;-74
2020/12/27 12:55:32;;;;;;;1.37;1.27;;;8.20;92.70;;;;;;5063070;28;20191;-78
2020/12/27 12:57:58;;;;;;;1.27;1.13;;;8.20;92.70;;;;;;5048752;28;20182;-78
2020/12/27 13:00:23;;;;;;;2.23;1.33;;;8.20;92.70;;;;;;5047359;28;20180;-75
2020/12/27 13:02:49;;;;;;;1.27;1.23;;;8.20;92.60;;;;;;5061247;28;20179;-74